createdAt,value
2019-04-25T04:20:15.144Z,13.90
2019-04-25T04:22:47.227Z,13.90
2019-04-25T04:25:18.938Z,14.00
2019-04-25T15:46:09.516Z,28.70
2019-04-25T15:48:40.009Z,28.80
2019-04-25T15:51:09.847Z,28.40
2019-04-25T15:53:40.236Z,28.20
2019-04-25T15:56:09.781Z,28.40
2019-04-25T15:58:40.355Z,28.50
2019-04-25T16:01:10.119Z,28.60
2019-04-25T16:03:41.019Z,28.40
2019-04-25T16:06:11.133Z,28.20
2019-04-25T16:08:40.912Z,28.30
2019-04-25T16:11:11.568Z,28.40
2019-04-25T16:13:41.119Z,28.20
2019-04-25T16:16:10.551Z,28.20
2019-04-25T16:18:41.176Z,28.10
2019-04-25T16:21:10.989Z,28.00
2019-04-25T16:23:40.635Z,27.70
2019-04-25T16:26:10.662Z,27.50
2019-04-25T16:28:40.568Z,27.50
2019-04-25T16:31:11.702Z,27.10
2019-04-25T16:33:42.095Z,26.60
2019-04-25T16:36:12.939Z,26.40
2019-04-25T16:38:42.497Z,26.20
2019-04-25T16:41:13.387Z,26.10
2019-04-25T16:43:44.582Z,26.10
2019-04-25T16:46:15.005Z,26.00
2019-04-25T16:48:44.765Z,25.90
2019-04-25T16:51:14.232Z,25.90
2019-04-25T16:53:43.805Z,25.80
2019-04-25T16:56:13.489Z,25.70
2019-04-25T16:58:43.262Z,25.60
2019-04-25T17:01:14.082Z,25.50
2019-04-25T17:03:43.960Z,25.50
2019-04-25T17:06:13.521Z,25.50
2019-04-25T17:08:43.938Z,25.40
2019-04-25T17:11:13.966Z,25.40
2019-04-25T17:13:45.011Z,25.30
2019-04-25T17:16:19.100Z,25.30
2019-04-25T17:19:01.931Z,25.20
2019-04-25T17:21:32.463Z,25.10
2019-04-25T17:24:02.088Z,25.10
2019-04-25T17:26:32.466Z,25.00
2019-04-25T17:29:03.866Z,24.90
2019-04-25T17:31:35.005Z,24.80
2019-04-25T17:34:09.045Z,24.80
2019-04-25T17:36:52.064Z,24.70
2019-04-25T17:39:23.488Z,24.70
2019-04-25T17:41:53.009Z,24.60
2019-04-25T17:44:22.572Z,24.50
2019-04-25T17:46:53.041Z,24.50
2019-04-25T17:49:22.528Z,24.40
2019-04-25T17:51:52.705Z,24.40
